Terminal Aerodrome Forecast
Issued by NWS Mt. Holly, NJ

Home | Current Version | Previous Version | Text Only | Print | Product List | Glossary On
Versions: 1 2 3 4 5 6 7 8 9 10 11 12 13 14 15 16 17 18 19 20 21
734
FTUS41 KPHI 092326
TAFACY
TAF
KACY 092326Z 1000/1024 03008KT P6SM -RASN OVC025
      TEMPO 1000/1003 4SM -SN OVC010
     FM100300 33005KT 5SM -SN OVC010
     FM100500 30005KT P6SM VCSH OVC010
     FM101000 27008KT P6SM OVC025
     FM101200 28012KT P6SM SCT020 BKN050
     FM101400 28015G25KT P6SM BKN050=

USA.gov is the U.S. government's official web portal to all federal, state and local government web resources and services.